Time,TemperatureF,DewpointF,PressureIn,WindDirection,WindDirectionDegrees,WindSpeedMPH,WindSpeedGustMPH,Humidity,HourlyPrecipIn,Conditions,Clouds,dailyrainin,SoftwareType,DateUTC
2013-03-02 00:01:00,31.0,19.0,30.38,North,360,5.0,7.0,60,0.00,,,-99.99,,2013-03-02 07:01:00,
2013-03-02 00:11:00,28.0,17.0,30.39,North,360,2.0,6.0,64,0.00,,,-99.99,,2013-03-02 07:11:00,
2013-03-02 00:21:00,28.0,17.0,30.39,North,360,2.0,6.0,64,0.00,,,-99.99,,2013-03-02 07:21:00,
2013-03-02 00:32:00,27.0,19.0,30.39,North,360,1.0,4.0,71,0.00,,,-99.99,,2013-03-02 07:32:00,
2013-03-02 00:41:00,27.0,19.0,30.39,North,360,1.0,4.0,71,0.00,,,-99.99,,2013-03-02 07:41:00,
2013-03-02 00:52:00,29.0,19.0,30.39,North,360,1.0,3.0,65,0.00,,,-99.99,,2013-03-02 07:52:00,
2013-03-02 01:01:00,30.0,18.0,30.39,North,360,1.0,8.0,61,0.00,,,-99.99,,2013-03-02 08:01:00,
2013-03-02 01:11:00,30.0,18.0,30.39,North,360,1.0,8.0,61,0.00,,,-99.99,,2013-03-02 08:11:00,
2013-03-02 01:21:00,28.0,19.0,30.40,North,360,4.0,8.0,68,0.00,,,-99.99,,2013-03-02 08:21:00,
2013-03-02 01:31:00,28.0,19.0,30.40,North,360,4.0,8.0,68,0.00,,,-99.99,,2013-03-02 08:31:00,
2013-03-02 01:42:00,28.0,19.0,30.40,North,360,4.0,8.0,68,0.00,,,-99.99,,2013-03-02 08:42:00,
2013-03-02 01:52:00,25.0,18.0,30.40,North,360,4.0,8.0,74,0.00,,,-99.99,,2013-03-02 08:52:00,
2013-03-02 02:01:00,25.0,19.0,30.40,North,360,3.0,7.0,76,0.00,,,-99.99,,2013-03-02 09:01:00,
2013-03-02 02:11:00,26.0,19.0,30.40,North,360,3.0,6.0,74,0.00,,,-99.99,,2013-03-02 09:11:00,
2013-03-02 02:21:00,26.0,19.0,30.40,North,360,3.0,6.0,74,0.00,,,-99.99,,2013-03-02 09:21:00,
2013-03-02 02:31:00,27.0,19.0,30.40,North,360,1.0,3.0,70,0.00,,,-99.99,,2013-03-02 09:31:00,
2013-03-02 02:42:00,27.0,19.0,30.40,North,360,1.0,3.0,70,0.00,,,-99.99,,2013-03-02 09:42:00,
2013-03-02 02:51:00,27.0,19.0,30.40,North,360,1.0,3.0,70,0.00,,,-99.99,,2013-03-02 09:51:00,
2013-03-02 03:01:00,27.0,19.0,30.40,North,360,1.0,3.0,70,0.00,,,-99.99,,2013-03-02 10:01:00,
2013-03-02 03:52:00,26.0,18.0,30.39,North,360,0.0,2.0,71,0.00,,,-99.99,,2013-03-02 10:52:00,
2013-03-02 04:01:00,28.0,20.0,30.39,North,360,1.0,3.0,70,0.00,,,-99.99,,2013-03-02 11:01:00,
2013-03-02 04:11:00,28.0,20.0,30.39,North,360,1.0,3.0,70,0.00,,,-99.99,,2013-03-02 11:11:00,
2013-03-02 04:21:00,28.0,20.0,30.39,North,360,1.0,3.0,70,0.00,,,-99.99,,2013-03-02 11:21:00,
2013-03-02 04:31:00,25.0,19.0,30.39,North,360,2.0,5.0,76,0.00,,,-99.99,,2013-03-02 11:31:00,
2013-03-02 04:41:00,25.0,19.0,30.39,North,360,2.0,5.0,76,0.00,,,-99.99,,2013-03-02 11:41:00,
2013-03-02 04:52:00,24.0,18.0,30.39,North,360,0.0,2.0,78,0.00,,,-99.99,,2013-03-02 11:52:00,
2013-03-02 05:02:00,24.0,18.0,30.40,North,360,0.0,2.0,78,0.00,,,-99.99,,2013-03-02 12:02:00,
2013-03-02 05:11:00,24.0,18.0,30.40,North,360,0.0,2.0,78,0.00,,,-99.99,,2013-03-02 12:11:00,
2013-03-02 05:21:00,24.0,18.0,30.40,North,360,1.0,4.0,79,0.00,,,-99.99,,2013-03-02 12:21:00,
2013-03-02 05:32:00,24.0,18.0,30.40,North,360,1.0,4.0,79,0.00,,,-99.99,,2013-03-02 12:32:00,
2013-03-02 05:43:00,24.0,18.0,30.40,North,360,1.0,4.0,79,0.00,,,-99.99,,2013-03-02 12:43:00,
2013-03-02 05:53:00,24.0,18.0,30.40,North,360,1.0,4.0,79,0.00,,,-99.99,,2013-03-02 12:53:00,
2013-03-02 06:21:00,25.0,20.0,30.39,North,360,2.0,3.0,80,0.00,,,-99.99,,2013-03-02 13:21:00,
2013-03-02 06:31:00,24.0,20.0,30.39,North,360,2.0,4.0,84,0.00,,,-99.99,,2013-03-02 13:31:00,
2013-03-02 06:41:00,24.0,20.0,30.39,North,360,2.0,4.0,84,0.00,,,-99.99,,2013-03-02 13:41:00,
2013-03-02 06:52:00,25.0,20.0,30.40,North,360,1.0,3.0,80,0.00,,,-99.99,,2013-03-02 13:52:00,
2013-03-02 07:01:00,24.0,18.0,30.40,North,360,0.0,2.0,79,0.00,,,-99.99,,2013-03-02 14:01:00,
2013-03-02 07:11:00,24.0,18.0,30.40,North,360,0.0,2.0,79,0.00,,,-99.99,,2013-03-02 14:11:00,
2013-03-02 07:21:00,24.0,20.0,30.39,North,360,1.0,4.0,84,0.00,,,-99.99,,2013-03-02 14:21:00,
2013-03-02 07:31:00,26.0,22.0,30.40,North,360,0.0,2.0,84,0.00,,,-99.99,,2013-03-02 14:31:00,
2013-03-02 07:42:00,26.0,22.0,30.40,North,360,0.0,2.0,84,0.00,,,-99.99,,2013-03-02 14:42:00,
2013-03-02 07:52:00,26.0,22.0,30.40,North,360,0.0,2.0,84,0.00,,,-99.99,,2013-03-02 14:52:00,
2013-03-02 08:01:00,38.0,27.0,30.39,North,360,1.0,3.0,63,0.00,,,-99.99,,2013-03-02 15:01:00,
2013-03-02 08:21:00,38.0,26.0,30.40,North,360,2.0,4.0,62,0.00,,,-99.99,,2013-03-02 15:21:00,
2013-03-02 08:52:00,49.0,33.0,30.40,North,360,0.0,2.0,54,0.00,,,-99.99,,2013-03-02 15:52:00,
2013-03-02 09:31:00,50.0,28.0,30.40,North,360,4.0,11.0,43,0.00,,,-99.99,,2013-03-02 16:31:00,
2013-03-02 09:52:00,52.0,27.0,30.39,North,360,5.0,10.0,37,0.00,,,-99.99,,2013-03-02 16:52:00,
2013-03-02 10:01:00,52.0,27.0,30.39,North,360,7.0,13.0,37,0.00,,,-99.99,,2013-03-02 17:01:00,
2013-03-02 10:31:00,56.0,24.0,30.39,North,360,5.0,11.0,29,0.00,,,-99.99,,2013-03-02 17:31:00,
2013-03-02 10:52:00,56.0,25.0,30.39,North,360,7.0,11.0,30,0.00,,,-99.99,,2013-03-02 17:52:00,
2013-03-02 11:01:00,58.0,24.0,30.39,North,360,6.0,11.0,27,0.00,,,-99.99,,2013-03-02 18:01:00,
2013-03-02 11:11:00,58.0,24.0,30.39,North,360,6.0,11.0,27,0.00,,,-99.99,,2013-03-02 18:11:00,
2013-03-02 11:21:00,58.0,24.0,30.39,North,360,6.0,11.0,27,0.00,,,-99.99,,2013-03-02 18:21:00,
2013-03-02 11:31:00,58.0,24.0,30.39,North,360,6.0,11.0,27,0.00,,,-99.99,,2013-03-02 18:31:00,
2013-03-02 11:41:00,58.0,24.0,30.39,North,360,6.0,11.0,27,0.00,,,-99.99,,2013-03-02 18:41:00,
2013-03-02 12:01:00,62.0,19.0,30.38,North,360,4.0,7.0,19,0.00,,,-99.99,,2013-03-02 19:01:00,
2013-03-02 12:11:00,62.0,19.0,30.38,North,360,4.0,7.0,19,0.00,,,-99.99,,2013-03-02 19:11:00,
2013-03-02 12:21:00,62.0,19.0,30.38,North,360,4.0,7.0,19,0.00,,,-99.99,,2013-03-02 19:21:00,
2013-03-02 12:31:00,65.0,24.0,30.37,North,360,4.0,10.0,21,0.00,,,-99.99,,2013-03-02 19:31:00,
2013-03-02 12:42:00,65.0,24.0,30.37,North,360,4.0,10.0,21,0.00,,,-99.99,,2013-03-02 19:42:00,
2013-03-02 12:52:00,67.0,23.0,30.36,North,360,2.0,7.0,19,0.00,,,-99.99,,2013-03-02 19:52:00,
2013-03-02 13:01:00,67.0,26.0,30.36,North,360,2.0,8.0,21,0.00,,,-99.99,,2013-03-02 20:01:00,
2013-03-02 13:21:00,67.0,26.0,30.34,North,360,3.0,8.0,21,0.00,,,-99.99,,2013-03-02 20:21:00,
2013-03-02 13:31:00,66.0,24.0,30.34,North,360,5.0,11.0,20,0.00,,,-99.99,,2013-03-02 20:31:00,
2013-03-02 13:41:00,66.0,24.0,30.34,North,360,5.0,11.0,20,0.00,,,-99.99,,2013-03-02 20:41:00,
2013-03-02 13:52:00,66.0,24.0,30.34,North,360,5.0,11.0,20,0.00,,,-99.99,,2013-03-02 20:52:00,
2013-03-02 14:02:00,65.0,24.0,30.33,North,360,6.0,15.0,21,0.00,,,-99.99,,2013-03-02 21:02:00,
2013-03-02 14:11:00,65.0,24.0,30.33,North,360,6.0,15.0,21,0.00,,,-99.99,,2013-03-02 21:11:00,
2013-03-02 14:21:00,65.0,24.0,30.33,North,360,6.0,15.0,21,0.00,,,-99.99,,2013-03-02 21:21:00,
2013-03-02 14:31:00,65.0,25.0,30.32,North,360,8.0,15.0,22,0.00,,,-99.99,,2013-03-02 21:31:00,
2013-03-02 14:41:00,65.0,25.0,30.32,North,360,8.0,15.0,22,0.00,,,-99.99,,2013-03-02 21:41:00,
2013-03-02 14:52:00,64.0,27.0,30.32,North,360,5.0,18.0,25,0.00,,,-99.99,,2013-03-02 21:52:00,
2013-03-02 15:01:00,64.0,27.0,30.31,North,360,9.0,20.0,25,0.00,,,-99.99,,2013-03-02 22:01:00,
2013-03-02 15:21:00,63.0,28.0,30.31,North,360,8.0,17.0,26,0.00,,,-99.99,,2013-03-02 22:21:00,
2013-03-02 15:31:00,63.0,27.0,30.30,North,360,9.0,17.0,25,0.00,,,-99.99,,2013-03-02 22:31:00,
2013-03-02 15:52:00,65.0,27.0,30.31,North,360,6.0,13.0,24,0.00,,,-99.99,,2013-03-02 22:52:00,
2013-03-02 16:01:00,64.0,27.0,30.30,North,360,5.0,14.0,25,0.00,,,-99.99,,2013-03-02 23:01:00,
2013-03-02 16:11:00,63.0,25.0,30.30,North,360,6.0,15.0,23,0.00,,,-99.99,,2013-03-02 23:11:00,
2013-03-02 16:21:00,63.0,25.0,30.30,North,360,6.0,15.0,23,0.00,,,-99.99,,2013-03-02 23:21:00,
2013-03-02 16:31:00,63.0,25.0,30.30,North,360,6.0,15.0,23,0.00,,,-99.99,,2013-03-02 23:31:00,
2013-03-02 16:41:00,63.0,25.0,30.30,North,360,6.0,15.0,23,0.00,,,-99.99,,2013-03-02 23:41:00,
2013-03-02 16:52:00,61.0,23.0,30.29,North,360,8.0,17.0,23,0.00,,,-99.99,,2013-03-02 23:52:00,
2013-03-02 17:02:00,60.0,23.0,30.29,North,360,6.0,17.0,24,0.00,,,-99.99,,2013-03-03 00:02:00,
2013-03-02 17:11:00,60.0,23.0,30.29,North,360,6.0,17.0,24,0.00,,,-99.99,,2013-03-03 00:11:00,
2013-03-02 17:22:00,60.0,23.0,30.29,North,360,6.0,17.0,24,0.00,,,-99.99,,2013-03-03 00:22:00,
2013-03-02 17:31:00,60.0,23.0,30.29,North,360,6.0,17.0,24,0.00,,,-99.99,,2013-03-03 00:31:00,
2013-03-02 17:42:00,60.0,23.0,30.29,North,360,6.0,17.0,24,0.00,,,-99.99,,2013-03-03 00:42:00,
2013-03-02 17:52:00,58.0,20.0,30.29,North,360,6.0,17.0,23,0.00,,,-99.99,,2013-03-03 00:52:00,
2013-03-02 18:01:00,60.0,21.0,30.28,North,360,3.0,11.0,22,0.00,,,-99.99,,2013-03-03 01:01:00,
2013-03-02 18:11:00,60.0,21.0,30.28,North,360,3.0,11.0,22,0.00,,,-99.99,,2013-03-03 01:11:00,
2013-03-02 18:21:00,58.0,22.0,30.28,North,360,4.0,10.0,25,0.00,,,-99.99,,2013-03-03 01:21:00,
2013-03-02 18:31:00,57.0,22.0,30.28,North,360,3.0,10.0,26,0.00,,,-99.99,,2013-03-03 01:31:00,
2013-03-02 18:41:00,57.0,22.0,30.28,North,360,3.0,10.0,26,0.00,,,-99.99,,2013-03-03 01:41:00,
2013-03-02 18:52:00,57.0,22.0,30.28,North,360,3.0,10.0,26,0.00,,,-99.99,,2013-03-03 01:52:00,
2013-03-02 19:01:00,57.0,22.0,30.28,North,360,3.0,10.0,26,0.00,,,-99.99,,2013-03-03 02:01:00,
2013-03-02 19:11:00,51.0,18.0,30.28,North,360,3.0,4.0,27,0.00,,,-99.99,,2013-03-03 02:11:00,
2013-03-02 19:21:00,51.0,18.0,30.28,North,360,3.0,4.0,27,0.00,,,-99.99,,2013-03-03 02:21:00,
2013-03-02 19:31:00,51.0,18.0,30.28,North,360,3.0,4.0,27,0.00,,,-99.99,,2013-03-03 02:31:00,
2013-03-02 19:41:00,51.0,18.0,30.28,North,360,3.0,4.0,27,0.00,,,-99.99,,2013-03-03 02:41:00,
2013-03-02 19:52:00,44.0,17.0,30.28,North,360,4.0,5.0,34,0.00,,,-99.99,,2013-03-03 02:52:00,
2013-03-02 20:01:00,43.0,17.0,30.28,North,360,4.0,5.0,34,0.00,,,-99.99,,2013-03-03 03:01:00,
2013-03-02 20:11:00,43.0,17.0,30.28,North,360,4.0,5.0,34,0.00,,,-99.99,,2013-03-03 03:11:00,
2013-03-02 20:21:00,40.0,18.0,30.28,North,360,3.0,4.0,40,0.00,,,-99.99,,2013-03-03 03:21:00,
2013-03-02 20:31:00,37.0,17.0,30.27,North,360,2.0,4.0,44,0.00,,,-99.99,,2013-03-03 03:31:00,
2013-03-02 20:41:00,37.0,17.0,30.27,North,360,2.0,4.0,44,0.00,,,-99.99,,2013-03-03 03:41:00,
2013-03-02 20:51:00,37.0,17.0,30.28,North,360,2.0,4.0,44,0.00,,,-99.99,,2013-03-03 03:51:00,
2013-03-02 21:01:00,37.0,17.0,30.28,North,360,2.0,4.0,44,0.00,,,-99.99,,2013-03-03 04:01:00,
2013-03-02 21:11:00,37.0,17.0,30.28,North,360,2.0,4.0,44,0.00,,,-99.99,,2013-03-03 04:11:00,
2013-03-02 21:21:00,33.0,19.0,30.28,North,360,0.0,2.0,56,0.00,,,-99.99,,2013-03-03 04:21:00,
2013-03-02 21:31:00,33.0,19.0,30.27,North,360,0.0,2.0,55,0.00,,,-99.99,,2013-03-03 04:31:00,
2013-03-02 21:42:00,33.0,19.0,30.27,North,360,0.0,2.0,55,0.00,,,-99.99,,2013-03-03 04:42:00,
2013-03-02 21:52:00,36.0,18.0,30.28,North,360,3.0,4.0,47,0.00,,,-99.99,,2013-03-03 04:52:00,
2013-03-02 22:01:00,40.0,19.0,30.28,North,360,3.0,4.0,42,0.00,,,-99.99,,2013-03-03 05:01:00,
2013-03-02 22:11:00,40.0,19.0,30.28,North,360,3.0,4.0,42,0.00,,,-99.99,,2013-03-03 05:11:00,
2013-03-02 22:21:00,35.0,19.0,30.28,North,360,2.0,4.0,52,0.00,,,-99.99,,2013-03-03 05:21:00,
2013-03-02 22:32:00,36.0,19.0,30.27,North,360,2.0,4.0,50,0.00,,,-99.99,,2013-03-03 05:32:00,
2013-03-02 22:42:00,36.0,19.0,30.27,North,360,2.0,4.0,50,0.00,,,-99.99,,2013-03-03 05:42:00,
2013-03-02 22:52:00,36.0,19.0,30.27,North,360,4.0,5.0,50,0.00,,,-99.99,,2013-03-03 05:52:00,
2013-03-02 23:01:00,34.0,19.0,30.27,North,360,4.0,5.0,54,0.00,,,-99.99,,2013-03-03 06:01:00,
2013-03-02 23:11:00,34.0,19.0,30.27,North,360,4.0,5.0,54,0.00,,,-99.99,,2013-03-03 06:11:00,
2013-03-02 23:21:00,30.0,20.0,30.27,North,360,0.0,2.0,65,0.00,,,-99.99,,2013-03-03 06:21:00,
2013-03-02 23:31:00,30.0,20.0,30.27,North,360,0.0,2.0,65,0.00,,,-99.99,,2013-03-03 06:31:00,
2013-03-02 23:42:00,30.0,20.0,30.27,North,360,0.0,2.0,65,0.00,,,-99.99,,2013-03-03 06:42:00,
2013-03-02 23:51:00,28.0,19.0,30.25,North,360,1.0,3.0,68,0.00,,,-99.99,,2013-03-03 06:51:00,